Aeroporto :
LOGIN :

Iscrizione | Disclaimer

   EN    FR    IT 

 










Sommario :    VFR   VFR Marginale   IFR   IFR Intensivo   IFR Molto Intensivo
Visibilità : 
Base nubi : 
>= 8 km
>= 3000ft
5 / 8 km
1000 / 3000 ft
1500m / 5 km
500 / 1000 ft
800 / 1500m
200 / 500 ft
< 800m
< 200 ft
Simboli :   Temporali  Nebbia  Neve Forte  Precipitazioni Forti  Vento > 20 kt
SIGMETs :   Varie  Temporali  Ghiacco  Turbolenza  Onda orograficha  Ceneri Vulcaniche






- Altitudine del aeroporto : 53 ft
- Codice IATA : LBC


EDHL - Lübeck

ULTIMO METAR :
  • 241720Z 13004KT 100V170 9999 BKN016 13/12 Q1009

METARs OBSOLETI :
  • 241650Z 14003KT 9999 BKN016 BKN023 13/12 Q1009
  • 241620Z 17006KT 9999 SCT013 BKN018 13/12 Q1009
  • 241550Z 17007KT 130V210 9999 SCT012 BKN030 13/12 Q1010
  • 241520Z 17006KT 140V200 9999 SCT016 BKN023 13/12 Q1010
  • 241450Z 18007KT 9999 SCT010 BKN023 13/11 Q1010 REDZ

TAF TAF EDHL
Valido dal 24 a 15 ore il 24 a 21 ore UTC


241400Z 2415/2421 19008KT 9999 BKN035
TEMPO 2415/2418 BKN014
PROB30
TEMPO 2415/2418 4000 -DZRA BKN008



MetMap, La meteo Aeronautica in un colpo d'occhio ! - Copyright ORBIFLY Dicembre 2007 - Disclaimer

ORBIFLY MET'MAP TEAM :

Programmazione e sviluppo : Alexandra Zaïnal
Concezione : Baudouin d'Aumeries
Aiuto per la programmazione : Marc-Olivier Méhu
Supporto tecnico e logistico : Manuel Goepfert
Aiuto per la traduzione : Arnaldo La Scala

Contatto : metmap@orbifly.com




FONTI E CREDITI :

   NOAA